sensor_id;sensor_type;location;lat;lon;timestamp;pressure;altitude;pressure_sealevel;temperature;humidity
11085;BME280;5596;46.826;8.650;2023-04-01T00:02:13;95421.75;;;6.77;100.00
11085;BME280;5596;46.826;8.650;2023-04-01T00:04:40;95408.19;;;6.72;100.00
11085;BME280;5596;46.826;8.650;2023-04-01T00:07:07;95373.81;;;6.69;100.00
11085;BME280;5596;46.826;8.650;2023-04-01T00:09:34;95387.16;;;6.58;100.00
11085;BME280;5596;46.826;8.650;2023-04-01T00:12:03;95429.91;;;6.71;100.00
11085;BME280;5596;46.826;8.650;2023-04-01T00:14:30;95438.06;;;6.76;100.00
11085;BME280;5596;46.826;8.650;2023-04-01T00:16:57;95411.16;;;6.82;100.00
11085;BME280;5596;46.826;8.650;2023-04-01T00:19:24;95404.72;;;6.72;100.00
11085;BME280;5596;46.826;8.650;2023-04-01T00:21:51;95408.44;;;6.71;100.00
11085;BME280;5596;46.826;8.650;2023-04-01T00:24:18;95410.09;;;6.72;100.00
11085;BME280;5596;46.826;8.650;2023-04-01T00:26:45;95417.22;;;6.78;100.00
11085;BME280;5596;46.826;8.650;2023-04-01T00:29:14;95412.78;;;6.83;100.00
11085;BME280;5596;46.826;8.650;2023-04-01T00:31:41;95411.84;;;6.78;100.00
11085;BME280;5596;46.826;8.650;2023-04-01T00:34:08;95405.06;;;6.75;100.00
11085;BME280;5596;46.826;8.650;2023-04-01T00:36:35;95394.66;;;6.67;100.00
11085;BME280;5596;46.826;8.650;2023-04-01T00:39:02;95387.06;;;6.64;100.00
11085;BME280;5596;46.826;8.650;2023-04-01T00:41:29;95387.88;;;6.65;100.00
11085;BME280;5596;46.826;8.650;2023-04-01T00:46:38;95367.41;;;6.70;100.00
11085;BME280;5596;46.826;8.650;2023-04-01T00:49:05;95373.09;;;6.62;100.00
11085;BME280;5596;46.826;8.650;2023-04-01T00:51:32;95374.13;;;6.61;100.00
11085;BME280;5596;46.826;8.650;2023-04-01T00:54:01;95372.59;;;6.65;100.00
11085;BME280;5596;46.826;8.650;2023-04-01T00:56:30;95362.03;;;6.70;100.00
11085;BME280;5596;46.826;8.650;2023-04-01T00:58:57;95383.34;;;6.65;100.00
11085;BME280;5596;46.826;8.650;2023-04-01T01:01:26;95389.63;;;6.59;100.00
11085;BME280;5596;46.826;8.650;2023-04-01T01:03:55;95380.31;;;6.62;100.00
11085;BME280;5596;46.826;8.650;2023-04-01T01:06:28;95367.03;;;6.67;100.00
11085;BME280;5596;46.826;8.650;2023-04-01T01:09:06;95361.66;;;6.67;100.00
11085;BME280;5596;46.826;8.650;2023-04-01T01:11:37;95353.28;;;6.63;100.00
11085;BME280;5596;46.826;8.650;2023-04-01T01:14:08;95361.16;;;6.58;100.00
11085;BME280;5596;46.826;8.650;2023-04-01T01:16:40;95370.72;;;6.54;100.00
11085;BME280;5596;46.826;8.650;2023-04-01T01:19:14;95358.50;;;6.58;100.00
11085;BME280;5596;46.826;8.650;2023-04-01T01:21:58;95349.06;;;6.67;100.00
11085;BME280;5596;46.826;8.650;2023-04-01T01:24:34;95350.94;;;6.67;100.00
11085;BME280;5596;46.826;8.650;2023-04-01T01:27:08;95358.16;;;6.66;100.00
11085;BME280;5596;46.826;8.650;2023-04-01T01:29:54;95360.63;;;6.68;100.00
11085;BME280;5596;46.826;8.650;2023-04-01T01:32:38;95364.34;;;6.67;100.00
11085;BME280;5596;46.826;8.650;2023-04-01T01:35:18;95360.84;;;6.66;100.00
11085;BME280;5596;46.826;8.650;2023-04-01T01:37:46;95354.16;;;6.57;100.00
11085;BME280;5596;46.826;8.650;2023-04-01T01:40:17;95363.25;;;6.56;100.00
11085;BME280;5596;46.826;8.650;2023-04-01T01:42:45;95363.63;;;6.60;100.00
11085;BME280;5596;46.826;8.650;2023-04-01T01:45:14;95339.25;;;6.61;100.00
11085;BME280;5596;46.826;8.650;2023-04-01T01:47:43;95326.53;;;6.57;100.00
11085;BME280;5596;46.826;8.650;2023-04-01T01:50:12;95326.63;;;6.50;100.00
11085;BME280;5596;46.826;8.650;2023-04-01T01:52:41;95350.31;;;6.53;100.00
11085;BME280;5596;46.826;8.650;2023-04-01T01:55:23;95353.00;;;6.53;100.00
11085;BME280;5596;46.826;8.650;2023-04-01T01:57:50;95339.38;;;6.55;100.00
11085;BME280;5596;46.826;8.650;2023-04-01T02:00:17;95340.88;;;6.51;100.00
11085;BME280;5596;46.826;8.650;2023-04-01T02:02:46;95331.63;;;6.46;100.00
11085;BME280;5596;46.826;8.650;2023-04-01T02:05:15;95332.09;;;6.43;100.00
11085;BME280;5596;46.826;8.650;2023-04-01T02:07:46;95346.22;;;6.51;100.00
11085;BME280;5596;46.826;8.650;2023-04-01T02:10:16;95337.25;;;6.45;100.00
11085;BME280;5596;46.826;8.650;2023-04-01T02:12:44;95342.59;;;6.45;100.00
11085;BME280;5596;46.826;8.650;2023-04-01T02:15:13;95331.88;;;6.45;100.00
11085;BME280;5596;46.826;8.650;2023-04-01T02:17:42;95350.72;;;6.38;100.00
11085;BME280;5596;46.826;8.650;2023-04-01T02:20:11;95359.03;;;6.37;100.00
11085;BME280;5596;46.826;8.650;2023-04-01T02:22:41;95322.06;;;6.39;100.00
11085;BME280;5596;46.826;8.650;2023-04-01T02:25:12;95324.16;;;6.37;100.00
11085;BME280;5596;46.826;8.650;2023-04-01T02:27:39;95344.31;;;6.39;100.00
11085;BME280;5596;46.826;8.650;2023-04-01T02:30:07;95332.22;;;6.37;100.00
11085;BME280;5596;46.826;8.650;2023-04-01T02:32:34;95338.13;;;6.39;100.00
11085;BME280;5596;46.826;8.650;2023-04-01T02:35:03;95339.66;;;6.35;100.00
11085;BME280;5596;46.826;8.650;2023-04-01T02:37:31;95321.00;;;6.40;100.00
11085;BME280;5596;46.826;8.650;2023-04-01T02:39:58;95322.75;;;6.34;100.00
11085;BME280;5596;46.826;8.650;2023-04-01T02:42:27;95347.25;;;6.38;100.00
11085;BME280;5596;46.826;8.650;2023-04-01T02:44:54;95343.06;;;6.42;100.00
11085;BME280;5596;46.826;8.650;2023-04-01T02:47:20;95322.69;;;6.53;100.00
11085;BME280;5596;46.826;8.650;2023-04-01T02:49:47;95322.31;;;6.49;100.00
11085;BME280;5596;46.826;8.650;2023-04-01T02:52:14;95346.34;;;6.44;100.00
11085;BME280;5596;46.826;8.650;2023-04-01T02:54:40;95340.59;;;6.40;100.00
11085;BME280;5596;46.826;8.650;2023-04-01T02:57:07;95328.94;;;6.46;100.00
11085;BME280;5596;46.826;8.650;2023-04-01T02:59:36;95325.94;;;6.43;100.00
11085;BME280;5596;46.826;8.650;2023-04-01T03:02:02;95330.78;;;6.34;100.00
11085;BME280;5596;46.826;8.650;2023-04-01T03:04:29;95319.84;;;6.36;100.00
11085;BME280;5596;46.826;8.650;2023-04-01T03:06:56;95331.97;;;6.38;100.00
11085;BME280;5596;46.826;8.650;2023-04-01T03:09:22;95326.38;;;6.40;100.00
11085;BME280;5596;46.826;8.650;2023-04-01T03:11:49;95320.28;;;6.33;100.00
11085;BME280;5596;46.826;8.650;2023-04-01T03:14:16;95329.75;;;6.35;100.00
11085;BME280;5596;46.826;8.650;2023-04-01T03:16:44;95325.66;;;6.33;100.00
11085;BME280;5596;46.826;8.650;2023-04-01T03:19:11;95311.22;;;6.34;100.00
11085;BME280;5596;46.826;8.650;2023-04-01T03:21:38;95308.97;;;6.31;100.00
11085;BME280;5596;46.826;8.650;2023-04-01T03:24:05;95317.72;;;6.26;100.00
11085;BME280;5596;46.826;8.650;2023-04-01T03:26:33;95315.63;;;6.28;100.00
11085;BME280;5596;46.826;8.650;2023-04-01T03:29:00;95301.41;;;6.28;100.00
11085;BME280;5596;46.826;8.650;2023-04-01T03:31:27;95321.22;;;6.27;100.00
11085;BME280;5596;46.826;8.650;2023-04-01T03:33:57;95315.03;;;6.26;100.00
11085;BME280;5596;46.826;8.650;2023-04-01T03:36:24;95320.72;;;6.18;100.00
11085;BME280;5596;46.826;8.650;2023-04-01T03:38:50;95320.13;;;6.16;100.00
11085;BME280;5596;46.826;8.650;2023-04-01T03:41:23;95317.81;;;6.20;100.00
11085;BME280;5596;46.826;8.650;2023-04-01T03:43:52;95311.97;;;6.23;100.00
11085;BME280;5596;46.826;8.650;2023-04-01T03:46:19;95305.25;;;6.20;100.00
11085;BME280;5596;46.826;8.650;2023-04-01T03:48:46;95315.22;;;6.13;100.00
11085;BME280;5596;46.826;8.650;2023-04-01T03:51:14;95322.22;;;6.14;100.00
11085;BME280;5596;46.826;8.650;2023-04-01T03:53:41;95332.09;;;6.14;100.00
11085;BME280;5596;46.826;8.650;2023-04-01T03:56:08;95331.66;;;6.17;100.00
11085;BME280;5596;46.826;8.650;2023-04-01T03:58:36;95323.19;;;6.20;100.00
11085;BME280;5596;46.826;8.650;2023-04-01T04:01:13;95315.47;;;6.23;100.00
11085;BME280;5596;46.826;8.650;2023-04-01T04:03:40;95307.22;;;6.25;100.00
11085;BME280;5596;46.826;8.650;2023-04-01T04:06:10;95305.13;;;6.27;100.00
11085;BME280;5596;46.826;8.650;2023-04-01T04:08:38;95307.22;;;6.25;100.00
11085;BME280;5596;46.826;8.650;2023-04-01T04:11:05;95283.69;;;6.27;100.00
11085;BME280;5596;46.826;8.650;2023-04-01T04:13:32;95277.06;;;6.29;100.00
11085;BME280;5596;46.826;8.650;2023-04-01T04:16:00;95292.56;;;6.27;100.00
11085;BME280;5596;46.826;8.650;2023-04-01T04:18:28;95302.19;;;6.17;100.00
11085;BME280;5596;46.826;8.650;2023-04-01T04:20:55;95323.63;;;6.17;100.00
11085;BME280;5596;46.826;8.650;2023-04-01T04:23:22;95327.84;;;6.24;100.00
11085;BME280;5596;46.826;8.650;2023-04-01T04:25:57;95313.41;;;6.25;100.00
11085;BME280;5596;46.826;8.650;2023-04-01T04:28:26;95284.63;;;6.21;100.00
11085;BME280;5596;46.826;8.650;2023-04-01T04:30:55;95306.06;;;6.21;100.00
11085;BME280;5596;46.826;8.650;2023-04-01T04:33:22;95319.81;;;6.24;100.00
11085;BME280;5596;46.826;8.650;2023-04-01T04:35:49;95315.84;;;6.27;100.00
11085;BME280;5596;46.826;8.650;2023-04-01T04:38:16;95303.28;;;6.27;100.00
11085;BME280;5596;46.826;8.650;2023-04-01T04:40:43;95307.66;;;6.22;100.00
11085;BME280;5596;46.826;8.650;2023-04-01T04:43:12;95309.91;;;6.25;100.00
11085;BME280;5596;46.826;8.650;2023-04-01T04:45:40;95296.88;;;6.28;100.00
11085;BME280;5596;46.826;8.650;2023-04-01T04:48:07;95302.56;;;6.32;100.00
11085;BME280;5596;46.826;8.650;2023-04-01T04:50:34;95313.78;;;6.29;100.00
11085;BME280;5596;46.826;8.650;2023-04-01T04:53:01;95315.25;;;6.25;100.00
11085;BME280;5596;46.826;8.650;2023-04-01T04:55:29;95327.03;;;6.24;100.00
11085;BME280;5596;46.826;8.650;2023-04-01T04:58:19;95338.78;;;6.23;100.00
11085;BME280;5596;46.826;8.650;2023-04-01T05:00:47;95343.09;;;6.24;100.00
11085;BME280;5596;46.826;8.650;2023-04-01T05:03:22;95349.44;;;6.29;100.00
11085;BME280;5596;46.826;8.650;2023-04-01T05:05:49;95360.72;;;6.31;100.00
11085;BME280;5596;46.826;8.650;2023-04-01T05:08:17;95368.56;;;6.33;100.00
11085;BME280;5596;46.826;8.650;2023-04-01T05:10:43;95355.75;;;6.35;100.00
11085;BME280;5596;46.826;8.650;2023-04-01T05:13:11;95370.78;;;6.36;100.00
11085;BME280;5596;46.826;8.650;2023-04-01T05:15:40;95380.47;;;6.37;100.00
11085;BME280;5596;46.826;8.650;2023-04-01T05:18:07;95394.91;;;6.36;100.00
11085;BME280;5596;46.826;8.650;2023-04-01T05:20:33;95388.63;;;6.42;100.00
11085;BME280;5596;46.826;8.650;2023-04-01T05:23:00;95380.00;;;6.40;100.00
11085;BME280;5596;46.826;8.650;2023-04-01T05:25:28;95385.00;;;6.36;100.00
11085;BME280;5596;46.826;8.650;2023-04-01T05:27:55;95374.50;;;6.35;100.00
11085;BME280;5596;46.826;8.650;2023-04-01T05:30:22;95373.91;;;6.33;100.00
11085;BME280;5596;46.826;8.650;2023-04-01T05:33:11;95367.28;;;6.35;100.00
11085;BME280;5596;46.826;8.650;2023-04-01T05:35:39;95369.50;;;6.38;100.00
11085;BME280;5596;46.826;8.650;2023-04-01T05:38:06;95367.06;;;6.37;100.00
11085;BME280;5596;46.826;8.650;2023-04-01T05:40:34;95366.25;;;6.36;100.00
11085;BME280;5596;46.826;8.650;2023-04-01T05:43:01;95360.88;;;6.36;100.00
11085;BME280;5596;46.826;8.650;2023-04-01T05:45:27;95372.28;;;6.32;100.00
11085;BME280;5596;46.826;8.650;2023-04-01T05:48:18;95387.91;;;6.35;100.00
11085;BME280;5596;46.826;8.650;2023-04-01T05:50:45;95398.63;;;6.35;100.00
11085;BME280;5596;46.826;8.650;2023-04-01T05:53:12;95398.19;;;6.38;100.00
11085;BME280;5596;46.826;8.650;2023-04-01T05:55:42;95395.53;;;6.38;100.00
11085;BME280;5596;46.826;8.650;2023-04-01T05:58:08;95387.91;;;6.35;100.00
11085;BME280;5596;46.826;8.650;2023-04-01T06:00:37;95379.19;;;6.39;100.00
11085;BME280;5596;46.826;8.650;2023-04-01T06:03:04;95375.22;;;6.42;100.00
11085;BME280;5596;46.826;8.650;2023-04-01T06:05:36;95370.47;;;6.44;100.00
11085;BME280;5596;46.826;8.650;2023-04-01T06:08:05;95372.09;;;6.45;100.00
11085;BME280;5596;46.826;8.650;2023-04-01T06:10:36;95362.31;;;6.51;100.00
11085;BME280;5596;46.826;8.650;2023-04-01T06:13:06;95359.25;;;6.47;100.00
11085;BME280;5596;46.826;8.650;2023-04-01T06:15:39;95384.59;;;6.51;100.00
11085;BME280;5596;46.826;8.650;2023-04-01T06:18:33;95394.28;;;6.52;100.00
11085;BME280;5596;46.826;8.650;2023-04-01T06:21:07;95369.38;;;6.63;100.00
11085;BME280;5596;46.826;8.650;2023-04-01T06:23:52;95377.03;;;6.60;100.00
11085;BME280;5596;46.826;8.650;2023-04-01T06:26:24;95378.91;;;6.59;100.00
11085;BME280;5596;46.826;8.650;2023-04-01T06:28:59;95376.34;;;6.64;100.00
11085;BME280;5596;46.826;8.650;2023-04-01T06:31:40;95385.56;;;6.68;100.00
11085;BME280;5596;46.826;8.650;2023-04-01T06:34:27;95390.72;;;6.70;100.00
11085;BME280;5596;46.826;8.650;2023-04-01T06:37:06;95390.00;;;6.74;100.00
11085;BME280;5596;46.826;8.650;2023-04-01T06:39:41;95391.22;;;6.78;100.00
11085;BME280;5596;46.826;8.650;2023-04-01T06:42:28;95383.97;;;6.79;100.00
11085;BME280;5596;46.826;8.650;2023-04-01T06:45:08;95373.34;;;6.84;100.00
11085;BME280;5596;46.826;8.650;2023-04-01T06:48:03;95389.22;;;6.86;100.00
11085;BME280;5596;46.826;8.650;2023-04-01T06:50:55;95402.75;;;6.91;100.00
11085;BME280;5596;46.826;8.650;2023-04-01T06:53:45;95398.94;;;6.98;100.00
11085;BME280;5596;46.826;8.650;2023-04-01T06:56:32;95410.75;;;7.09;100.00
11085;BME280;5596;46.826;8.650;2023-04-01T06:59:12;95416.59;;;7.06;100.00
11085;BME280;5596;46.826;8.650;2023-04-01T07:01:42;95418.19;;;7.07;100.00
11085;BME280;5596;46.826;8.650;2023-04-01T07:04:11;95419.38;;;7.11;100.00
11085;BME280;5596;46.826;8.650;2023-04-01T07:06:40;95411.44;;;7.16;100.00
11085;BME280;5596;46.826;8.650;2023-04-01T07:09:12;95409.81;;;7.15;100.00
11085;BME280;5596;46.826;8.650;2023-04-01T07:12:00;95406.56;;;7.13;100.00
11085;BME280;5596;46.826;8.650;2023-04-01T07:15:01;95404.91;;;7.12;100.00
11085;BME280;5596;46.826;8.650;2023-04-01T07:17:31;95408.53;;;7.17;100.00
11085;BME280;5596;46.826;8.650;2023-04-01T07:20:02;95412.16;;;7.23;100.00
11085;BME280;5596;46.826;8.650;2023-04-01T07:22:31;95407.59;;;7.23;100.00
11085;BME280;5596;46.826;8.650;2023-04-01T07:25:18;95404.00;;;7.30;100.00
11085;BME280;5596;46.826;8.650;2023-04-01T07:27:56;95394.75;;;7.26;100.00
11085;BME280;5596;46.826;8.650;2023-04-01T07:30:27;95404.69;;;7.25;100.00
11085;BME280;5596;46.826;8.650;2023-04-01T07:33:00;95410.41;;;7.29;100.00
11085;BME280;5596;46.826;8.650;2023-04-01T07:35:32;95406.34;;;7.38;100.00
11085;BME280;5596;46.826;8.650;2023-04-01T07:38:08;95391.75;;;7.45;100.00
11085;BME280;5596;46.826;8.650;2023-04-01T07:40:41;95406.69;;;7.53;100.00
11085;BME280;5596;46.826;8.650;2023-04-01T07:49:11;95420.47;;;7.56;100.00
11085;BME280;5596;46.826;8.650;2023-04-01T07:51:41;95419.41;;;7.57;100.00
11085;BME280;5596;46.826;8.650;2023-04-01T07:54:14;95425.94;;;7.62;100.00
11085;BME280;5596;46.826;8.650;2023-04-01T07:56:45;95416.34;;;7.66;100.00
11085;BME280;5596;46.826;8.650;2023-04-01T07:59:24;95429.56;;;7.67;100.00
11085;BME280;5596;46.826;8.650;2023-04-01T08:02:00;95429.47;;;7.74;100.00
11085;BME280;5596;46.826;8.650;2023-04-01T08:04:36;95432.72;;;7.76;100.00
11085;BME280;5596;46.826;8.650;2023-04-01T08:07:10;95445.91;;;7.77;100.00
11085;BME280;5596;46.826;8.650;2023-04-01T08:09:54;95461.13;;;7.72;100.00
11085;BME280;5596;46.826;8.650;2023-04-01T08:12:45;95438.81;;;7.71;100.00
11085;BME280;5596;46.826;8.650;2023-04-01T08:15:35;95428.97;;;7.77;100.00
11085;BME280;5596;46.826;8.650;2023-04-01T08:18:14;95427.94;;;7.78;100.00
11085;BME280;5596;46.826;8.650;2023-04-01T08:20:45;95434.03;;;7.73;100.00
11085;BME280;5596;46.826;8.650;2023-04-01T08:23:13;95441.59;;;7.76;100.00
11085;BME280;5596;46.826;8.650;2023-04-01T08:25:43;95432.94;;;7.86;100.00
11085;BME280;5596;46.826;8.650;2023-04-01T08:28:15;95437.72;;;7.95;100.00
11085;BME280;5596;46.826;8.650;2023-04-01T08:30:43;95442.97;;;8.02;100.00
11085;BME280;5596;46.826;8.650;2023-04-01T08:33:12;95430.56;;;8.13;100.00
11085;BME280;5596;46.826;8.650;2023-04-01T08:35:41;95427.50;;;8.21;100.00
11085;BME280;5596;46.826;8.650;2023-04-01T08:38:10;95432.50;;;8.29;100.00
11085;BME280;5596;46.826;8.650;2023-04-01T08:43:23;95418.94;;;8.35;100.00
11085;BME280;5596;46.826;8.650;2023-04-01T08:46:06;95412.88;;;8.40;100.00
11085;BME280;5596;46.826;8.650;2023-04-01T08:49:06;95418.47;;;8.39;100.00
11085;BME280;5596;46.826;8.650;2023-04-01T08:55:01;95422.72;;;8.63;100.00
11085;BME280;5596;46.826;8.650;2023-04-01T08:58:03;95423.78;;;8.62;100.00
11085;BME280;5596;46.826;8.650;2023-04-01T09:00:53;95401.66;;;8.60;100.00
11085;BME280;5596;46.826;8.650;2023-04-01T09:03:56;95397.84;;;8.56;100.00
11085;BME280;5596;46.826;8.650;2023-04-01T09:06:33;95410.00;;;8.58;100.00
11085;BME280;5596;46.826;8.650;2023-04-01T09:09:11;95415.69;;;8.62;100.00
11085;BME280;5596;46.826;8.650;2023-04-01T09:11:59;95418.00;;;8.70;100.00
11085;BME280;5596;46.826;8.650;2023-04-01T09:14:38;95414.91;;;8.78;100.00
11085;BME280;5596;46.826;8.650;2023-04-01T09:17:31;95410.38;;;8.95;100.00
11085;BME280;5596;46.826;8.650;2023-04-01T09:20:16;95425.59;;;9.01;100.00
11085;BME280;5596;46.826;8.650;2023-04-01T09:22:55;95432.09;;;9.05;100.00
11085;BME280;5596;46.826;8.650;2023-04-01T09:28:11;95424.03;;;9.05;100.00
11085;BME280;5596;46.826;8.650;2023-04-01T09:30:48;95435.53;;;9.01;100.00
11085;BME280;5596;46.826;8.650;2023-04-01T09:33:41;95421.81;;;9.02;100.00
11085;BME280;5596;46.826;8.650;2023-04-01T09:36:18;95431.22;;;9.00;100.00
11085;BME280;5596;46.826;8.650;2023-04-01T09:38:52;95445.06;;;8.92;100.00
11085;BME280;5596;46.826;8.650;2023-04-01T09:41:25;95439.53;;;8.98;100.00
11085;BME280;5596;46.826;8.650;2023-04-01T09:44:13;95446.63;;;9.04;100.00
11085;BME280;5596;46.826;8.650;2023-04-01T09:46:57;95460.41;;;8.91;100.00
11085;BME280;5596;46.826;8.650;2023-04-01T09:49:36;95447.41;;;8.88;100.00
11085;BME280;5596;46.826;8.650;2023-04-01T09:52:09;95448.63;;;8.81;100.00
11085;BME280;5596;46.826;8.650;2023-04-01T09:54:45;95460.63;;;8.90;100.00
11085;BME280;5596;46.826;8.650;2023-04-01T10:00:18;95454.13;;;9.02;100.00
11085;BME280;5596;46.826;8.650;2023-04-01T10:03:09;95455.28;;;9.06;100.00
11085;BME280;5596;46.826;8.650;2023-04-01T10:05:58;95450.25;;;9.10;100.00
11085;BME280;5596;46.826;8.650;2023-04-01T10:09:00;95449.84;;;9.18;100.00
11085;BME280;5596;46.826;8.650;2023-04-01T10:22:41;95449.53;;;9.48;100.00
11085;BME280;5596;46.826;8.650;2023-04-01T10:25:19;95446.81;;;9.48;100.00
11085;BME280;5596;46.826;8.650;2023-04-01T10:28:01;95443.06;;;9.49;100.00
11085;BME280;5596;46.826;8.650;2023-04-01T10:39:17;95434.91;;;9.77;100.00
11085;BME280;5596;46.826;8.650;2023-04-01T10:41:56;95431.44;;;9.82;100.00
11085;BME280;5596;46.826;8.650;2023-04-01T10:44:53;95426.88;;;9.82;100.00
11085;BME280;5596;46.826;8.650;2023-04-01T10:47:58;95427.19;;;9.86;100.00
11085;BME280;5596;46.826;8.650;2023-04-01T10:53:28;95428.66;;;9.94;100.00
11085;BME280;5596;46.826;8.650;2023-04-01T10:56:35;95432.38;;;10.09;100.00
11085;BME280;5596;46.826;8.650;2023-04-01T10:59:15;95425.31;;;10.25;100.00
11085;BME280;5596;46.826;8.650;2023-04-01T11:02:12;95424.56;;;10.30;100.00
11085;BME280;5596;46.826;8.650;2023-04-01T11:11:04;95399.28;;;10.36;100.00
11085;BME280;5596;46.826;8.650;2023-04-01T11:19:31;95398.47;;;10.35;100.00
11085;BME280;5596;46.826;8.650;2023-04-01T11:22:10;95395.00;;;10.40;100.00
11085;BME280;5596;46.826;8.650;2023-04-01T11:24:57;95398.88;;;10.49;100.00
11085;BME280;5596;46.826;8.650;2023-04-01T11:27:49;95394.47;;;10.65;100.00
11085;BME280;5596;46.826;8.650;2023-04-01T11:30:22;95395.16;;;10.77;100.00
11085;BME280;5596;46.826;8.650;2023-04-01T11:32:54;95394.38;;;10.81;100.00
11085;BME280;5596;46.826;8.650;2023-04-01T11:35:32;95398.50;;;10.89;100.00
11085;BME280;5596;46.826;8.650;2023-04-01T11:38:05;95396.94;;;10.93;100.00
11085;BME280;5596;46.826;8.650;2023-04-01T11:40:47;95401.47;;;10.87;100.00
11085;BME280;5596;46.826;8.650;2023-04-01T11:43:38;95405.75;;;10.83;100.00
11085;BME280;5596;46.826;8.650;2023-04-01T11:46:28;95386.28;;;10.81;100.00
11085;BME280;5596;46.826;8.650;2023-04-01T11:49:02;95393.91;;;10.89;100.00
11085;BME280;5596;46.826;8.650;2023-04-01T11:51:46;95389.44;;;11.00;100.00
11085;BME280;5596;46.826;8.650;2023-04-01T11:54:21;95396.25;;;11.08;100.00
11085;BME280;5596;46.826;8.650;2023-04-01T11:56:55;95389.03;;;11.13;100.00
11085;BME280;5596;46.826;8.650;2023-04-01T11:59:29;95392.84;;;11.17;100.00
11085;BME280;5596;46.826;8.650;2023-04-01T12:02:03;95385.88;;;11.26;100.00
11085;BME280;5596;46.826;8.650;2023-04-01T12:04:41;95374.59;;;11.34;100.00
11085;BME280;5596;46.826;8.650;2023-04-01T12:07:21;95367.09;;;11.42;100.00
11085;BME280;5596;46.826;8.650;2023-04-01T12:09:52;95360.91;;;11.46;100.00
11085;BME280;5596;46.826;8.650;2023-04-01T12:12:25;95349.84;;;11.48;100.00
11085;BME280;5596;46.826;8.650;2023-04-01T12:14:59;95352.00;;;11.51;100.00
11085;BME280;5596;46.826;8.650;2023-04-01T12:17:33;95355.03;;;11.54;100.00
11085;BME280;5596;46.826;8.650;2023-04-01T12:20:12;95352.38;;;11.64;100.00
11085;BME280;5596;46.826;8.650;2023-04-01T12:22:49;95347.88;;;11.75;100.00
11085;BME280;5596;46.826;8.650;2023-04-01T12:25:25;95352.53;;;11.85;100.00
11085;BME280;5596;46.826;8.650;2023-04-01T12:28:06;95335.84;;;12.03;100.00
11085;BME280;5596;46.826;8.650;2023-04-01T12:30:42;95326.97;;;12.18;100.00
11085;BME280;5596;46.826;8.650;2023-04-01T12:35:55;95329.50;;;12.39;98.94
11085;BME280;5596;46.826;8.650;2023-04-01T12:38:29;95333.88;;;12.56;99.81
11085;BME280;5596;46.826;8.650;2023-04-01T12:43:53;95333.09;;;12.65;96.03
11085;BME280;5596;46.826;8.650;2023-04-01T12:46:25;95320.66;;;12.74;97.45
11085;BME280;5596;46.826;8.650;2023-04-01T12:49:05;95332.31;;;12.90;95.00
11085;BME280;5596;46.826;8.650;2023-04-01T12:51:40;95340.44;;;12.95;92.33
11085;BME280;5596;46.826;8.650;2023-04-01T12:57:10;95347.97;;;12.63;91.18
11085;BME280;5596;46.826;8.650;2023-04-01T12:59:50;95353.91;;;12.49;91.83
11085;BME280;5596;46.826;8.650;2023-04-01T13:02:25;95363.31;;;12.42;94.05
11085;BME280;5596;46.826;8.650;2023-04-01T13:05:20;95364.94;;;12.38;92.43
11085;BME280;5596;46.826;8.650;2023-04-01T13:13:29;95354.63;;;12.25;88.24
11085;BME280;5596;46.826;8.650;2023-04-01T13:16:00;95341.88;;;12.20;89.02
11085;BME280;5596;46.826;8.650;2023-04-01T13:18:32;95338.34;;;12.20;87.01
11085;BME280;5596;46.826;8.650;2023-04-01T13:21:06;95353.00;;;12.29;86.26
11085;BME280;5596;46.826;8.650;2023-04-01T13:23:43;95363.81;;;12.29;85.23
11085;BME280;5596;46.826;8.650;2023-04-01T13:26:17;95361.13;;;12.34;87.24
11085;BME280;5596;46.826;8.650;2023-04-01T13:28:47;95353.56;;;12.36;89.81
11085;BME280;5596;46.826;8.650;2023-04-01T13:31:25;95355.19;;;12.37;87.62
11085;BME280;5596;46.826;8.650;2023-04-01T13:33:58;95343.59;;;12.46;87.67
11085;BME280;5596;46.826;8.650;2023-04-01T13:36:27;95336.56;;;12.56;90.28
11085;BME280;5596;46.826;8.650;2023-04-01T13:41:46;95342.84;;;12.66;78.44
11085;BME280;5596;46.826;8.650;2023-04-01T13:44:17;95333.38;;;12.74;76.88
11085;BME280;5596;46.826;8.650;2023-04-01T13:49:33;95326.09;;;13.10;76.13
11085;BME280;5596;46.826;8.650;2023-04-01T13:52:14;95322.31;;;13.21;72.19
11085;BME280;5596;46.826;8.650;2023-04-01T13:54:58;95323.41;;;13.35;73.54
11085;BME280;5596;46.826;8.650;2023-04-01T13:57:38;95325.28;;;13.40;71.18
11085;BME280;5596;46.826;8.650;2023-04-01T14:00:18;95313.91;;;13.43;70.79
11085;BME280;5596;46.826;8.650;2023-04-01T14:05:44;95313.91;;;13.48;70.42
11085;BME280;5596;46.826;8.650;2023-04-01T14:08:17;95308.19;;;13.49;71.63
11085;BME280;5596;46.826;8.650;2023-04-01T14:10:48;95303.88;;;13.43;70.86
11085;BME280;5596;46.826;8.650;2023-04-01T14:13:22;95288.97;;;13.41;72.46
11085;BME280;5596;46.826;8.650;2023-04-01T14:15:55;95290.06;;;13.40;73.39
11085;BME280;5596;46.826;8.650;2023-04-01T14:21:16;95271.06;;;13.50;73.98
11085;BME280;5596;46.826;8.650;2023-04-01T14:29:20;95274.59;;;13.50;67.36
11085;BME280;5596;46.826;8.650;2023-04-01T14:31:57;95274.31;;;13.52;69.51
11085;BME280;5596;46.826;8.650;2023-04-01T14:34:35;95280.47;;;13.73;71.40
11085;BME280;5596;46.826;8.650;2023-04-01T14:37:12;95276.03;;;14.07;71.53
11085;BME280;5596;46.826;8.650;2023-04-01T14:39:57;95276.16;;;14.31;70.83
11085;BME280;5596;46.826;8.650;2023-04-01T14:42:45;95277.25;;;14.35;70.23
11085;BME280;5596;46.826;8.650;2023-04-01T14:45:28;95271.47;;;14.52;66.81
11085;BME280;5596;46.826;8.650;2023-04-01T14:48:07;95267.13;;;14.51;64.30
11085;BME280;5596;46.826;8.650;2023-04-01T14:50:41;95268.50;;;14.48;67.57
11085;BME280;5596;46.826;8.650;2023-04-01T14:53:11;95277.16;;;14.55;64.47
11085;BME280;5596;46.826;8.650;2023-04-01T14:55:46;95271.44;;;14.57;67.61
11085;BME280;5596;46.826;8.650;2023-04-01T14:58:15;95268.50;;;14.53;67.63
11085;BME280;5596;46.826;8.650;2023-04-01T15:00:47;95258.22;;;14.40;64.74
11085;BME280;5596;46.826;8.650;2023-04-01T15:03:16;95261.50;;;14.32;65.43
11085;BME280;5596;46.826;8.650;2023-04-01T15:05:46;95264.31;;;14.17;65.35
11085;BME280;5596;46.826;8.650;2023-04-01T15:08:16;95262.41;;;14.17;67.14
11085;BME280;5596;46.826;8.650;2023-04-01T15:13:43;95255.91;;;14.13;69.76
11085;BME280;5596;46.826;8.650;2023-04-01T15:16:17;95261.34;;;14.08;68.08